Time;durP1;ratioP1;P1;durP2;ratioP2;P2;SDS_P1;SDS_P2;PMS_P1;PMS_P2;Temp;Humidity;BMP_temperature;BMP_pressure;BME280_temperature;BME280_humidity;BME280_pressure;Samples;Min_cycle;Max_cycle;Signal;HPM_P1;HPM_P2
2023/06/02 00:00:42;;;;;;;14.95;5.10;;;;;;;;;;4986088;28;20049;-70
2023/06/02 00:03:11;;;;;;;10.70;4.80;;;;;;;;;;4989526;28;20093;-70
2023/06/02 00:05:40;;;;;;;10.35;4.95;;;;;;;;;;4990494;28;20403;-70
2023/06/02 00:08:06;;;;;;;12.30;5.18;;;;;;;;;;4983925;28;20034;-71
2023/06/02 00:10:32;;;;;;;11.15;5.28;;;;;;;;;;4988788;28;20042;-70
2023/06/02 00:12:57;;;;;;;8.73;4.93;;;;;;;;;;4986164;28;20054;-70
2023/06/02 00:15:23;;;;;;;7.45;4.70;;;;;;;;;;4989169;28;20042;-70
2023/06/02 00:17:49;;;;;;;8.05;4.38;;;;;;;;;;4986284;28;20037;-70
2023/06/02 00:20:17;;;;;;;10.98;4.90;;;;;;;;;;4990503;28;20523;-69
2023/06/02 00:22:46;;;;;;;10.25;5.03;;;;;;;;;;4990536;28;20022;-69
2023/06/02 00:25:12;;;;;;;8.25;4.85;;;;;;;;;;4990415;28;20136;-70
2023/06/02 00:27:38;;;;;;;8.07;4.93;;;;;;;;;;4983159;28;20162;-70
2023/06/02 00:30:04;;;;;;;8.45;4.53;;;;;;;;;;4984766;28;20122;-70
2023/06/02 00:32:30;;;;;;;8.90;4.50;;;;;;;;;;4990787;28;20054;-71
2023/06/02 00:34:55;;;;;;;8.50;4.25;;;;;;;;;;4988915;28;20452;-72
2023/06/02 00:37:21;;;;;;;8.13;4.13;;;;;;;;;;4988328;28;20050;-70
2023/06/02 00:39:47;;;;;;;11.95;4.00;;;;;;;;;;4986438;28;20434;-70
2023/06/02 00:42:13;;;;;;;8.05;3.90;;;;;;;;;;4986341;28;20519;-70
2023/06/02 00:44:39;;;;;;;6.10;4.00;;;;;;;;;;4983170;28;20039;-70
2023/06/02 00:47:05;;;;;;;5.55;3.50;;;;;;;;;;4987853;28;20022;-70
2023/06/02 00:49:31;;;;;;;16.05;4.47;;;;;;;;;;4984150;28;20040;-70
2023/06/02 00:51:57;;;;;;;8.73;3.60;;;;;;;;;;4982809;28;20026;-70
2023/06/02 00:54:26;;;;;;;6.15;3.85;;;;;;;;;;4987524;28;20026;-70
2023/06/02 00:56:53;;;;;;;8.68;3.97;;;;;;;;;;4992995;28;20026;-70
2023/06/02 00:59:22;;;;;;;8.23;4.05;;;;;;;;;;4993135;28;20554;-70
2023/06/02 01:01:48;;;;;;;8.57;3.90;;;;;;;;;;4993324;28;20027;-70
2023/06/02 01:04:15;;;;;;;9.15;4.10;;;;;;;;;;4994490;28;20089;-70
2023/06/02 01:06:42;;;;;;;4.70;3.50;;;;;;;;;;5003547;28;20510;-71
2023/06/02 01:09:10;;;;;;;6.05;3.55;;;;;;;;;;4975921;28;20049;-69
2023/06/02 01:11:36;;;;;;;6.47;3.40;;;;;;;;;;4994470;28;20278;-70
2023/06/02 01:14:03;;;;;;;5.47;3.30;;;;;;;;;;4994888;28;20069;-70
2023/06/02 01:16:32;;;;;;;8.43;4.40;;;;;;;;;;4993171;28;20084;-70
2023/06/02 01:18:59;;;;;;;5.28;3.90;;;;;;;;;;4994061;28;20030;-70
2023/06/02 01:21:31;;;;;;;12.88;4.10;;;;;;;;;;4994641;28;20113;-69
2023/06/02 01:23:59;;;;;;;8.23;4.20;;;;;;;;;;4994556;28;20113;-70
2023/06/02 01:26:29;;;;;;;8.02;4.55;;;;;;;;;;4991803;28;20019;-71
2023/06/02 01:28:55;;;;;;;7.00;3.70;;;;;;;;;;4984117;28;20030;-70
2023/06/02 01:31:25;;;;;;;10.68;4.00;;;;;;;;;;4996071;28;20516;-70
2023/06/02 01:34:08;;;;;;;5.97;3.85;;;;;;;;;;4993036;28;20121;-69
2023/06/02 01:36:37;;;;;;;6.93;3.47;;;;;;;;;;4993210;28;20550;-70
2023/06/02 01:39:05;;;;;;;7.63;3.95;;;;;;;;;;4988594;28;22288;-70
2023/06/02 01:41:33;;;;;;;6.45;3.80;;;;;;;;;;4990985;28;20038;-70
2023/06/02 01:44:00;;;;;;;11.27;4.90;;;;;;;;;;4990758;28;20527;-71
2023/06/02 01:46:26;;;;;;;11.18;5.38;;;;;;;;;;4996502;28;20061;-70
2023/06/02 01:48:54;;;;;;;11.27;5.20;;;;;;;;;;4990280;28;20415;-70
2023/06/02 01:51:20;;;;;;;6.97;4.95;;;;;;;;;;4990294;28;20487;-69
2023/06/02 01:53:46;;;;;;;7.10;5.30;;;;;;;;;;4989400;28;20018;-70
2023/06/02 01:56:12;;;;;;;10.20;5.32;;;;;;;;;;4991133;28;20038;-71
2023/06/02 01:58:38;;;;;;;7.90;4.85;;;;;;;;;;4990123;28;20465;-71
2023/06/02 02:01:04;;;;;;;8.70;4.55;;;;;;;;;;4992658;28;20037;-70
2023/06/02 02:03:30;;;;;;;8.77;4.22;;;;;;;;;;4992197;28;20367;-70
2023/06/02 02:05:56;;;;;;;7.57;4.20;;;;;;;;;;4989589;28;20061;-70
2023/06/02 02:08:22;;;;;;;7.60;3.92;;;;;;;;;;4988856;28;20034;-70
2023/06/02 02:10:48;;;;;;;10.07;4.03;;;;;;;;;;4986492;28;20051;-70
2023/06/02 02:13:14;;;;;;;8.30;4.20;;;;;;;;;;4983713;28;20028;-70
2023/06/02 02:15:40;;;;;;;7.85;4.20;;;;;;;;;;4982873;28;20046;-70
2023/06/02 02:18:06;;;;;;;11.57;4.63;;;;;;;;;;4984081;28;20030;-70
2023/06/02 02:20:32;;;;;;;16.92;6.03;;;;;;;;;;4983851;28;20047;-70
2023/06/02 02:22:58;;;;;;;30.85;7.43;;;;;;;;;;4985653;28;20018;-70
2023/06/02 02:25:24;;;;;;;15.98;5.32;;;;;;;;;;4983634;28;20038;-71
2023/06/02 02:27:49;;;;;;;7.93;4.15;;;;;;;;;;4985768;28;20022;-72
2023/06/02 02:30:15;;;;;;;10.98;4.68;;;;;;;;;;4991010;28;20030;-70
2023/06/02 02:32:43;;;;;;;9.00;4.07;;;;;;;;;;4989335;28;20088;-71
2023/06/02 02:35:11;;;;;;;9.10;4.45;;;;;;;;;;5004679;28;20474;-69
2023/06/02 02:37:38;;;;;;;8.88;4.20;;;;;;;;;;5009490;28;20049;-70
2023/06/02 02:40:05;;;;;;;7.60;4.28;;;;;;;;;;5010841;28;20403;-70
2023/06/02 02:42:33;;;;;;;10.73;4.57;;;;;;;;;;5011302;28;20030;-69
2023/06/02 02:45:03;;;;;;;9.45;4.32;;;;;;;;;;5012522;28;20435;-70
2023/06/02 02:47:31;;;;;;;9.98;4.60;;;;;;;;;;5010910;28;20083;-70
2023/06/02 02:49:57;;;;;;;7.82;4.38;;;;;;;;;;5010625;28;20029;-70
2023/06/02 02:52:24;;;;;;;7.25;3.92;;;;;;;;;;5011187;28;20048;-70
2023/06/02 02:54:50;;;;;;;8.07;3.83;;;;;;;;;;4991861;28;20041;-70
2023/06/02 02:57:15;;;;;;;8.55;4.18;;;;;;;;;;4991296;28;20491;-69
2023/06/02 02:59:41;;;;;;;8.20;4.35;;;;;;;;;;4991076;28;20083;-71
2023/06/02 03:02:08;;;;;;;13.18;4.15;;;;;;;;;;4991058;28;20034;-70
2023/06/02 03:04:34;;;;;;;9.05;4.75;;;;;;;;;;4991908;28;20176;-70
2023/06/02 03:07:04;;;;;;;12.80;4.85;;;;;;;;;;4989869;28;20030;-70
2023/06/02 03:09:30;;;;;;;7.68;5.18;;;;;;;;;;4990696;28;20484;-70
2023/06/02 03:11:58;;;;;;;10.57;4.45;;;;;;;;;;4991159;28;20392;-70
2023/06/02 03:14:27;;;;;;;9.95;4.22;;;;;;;;;;4992352;28;20060;-70
2023/06/02 03:16:56;;;;;;;10.15;5.18;;;;;;;;;;4991156;28;20053;-71
2023/06/02 03:19:24;;;;;;;11.52;4.68;;;;;;;;;;4990799;28;20395;-69
2023/06/02 03:21:51;;;;;;;7.38;3.83;;;;;;;;;;4991494;28;20117;-69
2023/06/02 03:24:19;;;;;;;8.95;4.13;;;;;;;;;;4991023;28;20018;-70
2023/06/02 03:26:49;;;;;;;9.48;4.47;;;;;;;;;;4990850;28;20038;-70
2023/06/02 03:29:15;;;;;;;12.90;4.95;;;;;;;;;;4991673;28;20369;-70
2023/06/02 03:31:44;;;;;;;15.50;5.18;;;;;;;;;;4989402;28;20034;-70
2023/06/02 03:34:13;;;;;;;11.10;5.35;;;;;;;;;;4988620;28;20042;-69
2023/06/02 03:36:39;;;;;;;6.70;4.13;;;;;;;;;;4989644;28;20399;-70
2023/06/02 03:39:07;;;;;;;11.82;4.60;;;;;;;;;;4982254;28;20041;-70
2023/06/02 03:41:35;;;;;;;13.20;5.15;;;;;;;;;;4987368;28;20044;-70
2023/06/02 03:44:04;;;;;;;16.92;5.10;;;;;;;;;;4989696;28;20073;-70
2023/06/02 03:46:30;;;;;;;12.13;5.03;;;;;;;;;;4990193;28;20030;-69
2023/06/02 03:48:58;;;;;;;11.48;4.82;;;;;;;;;;4989532;28;20121;-70
2023/06/02 03:51:25;;;;;;;9.38;4.47;;;;;;;;;;4989170;28;20034;-70
2023/06/02 03:53:53;;;;;;;9.10;4.38;;;;;;;;;;4985786;28;20064;-69
2023/06/02 03:56:20;;;;;;;11.73;4.53;;;;;;;;;;4989940;28;20388;-70
2023/06/02 03:58:46;;;;;;;7.50;4.07;;;;;;;;;;4988628;28;20196;-69
2023/06/02 04:01:12;;;;;;;10.85;4.05;;;;;;;;;;4989672;28;20169;-70
2023/06/02 04:03:41;;;;;;;9.90;4.30;;;;;;;;;;4973829;28;20117;-70
2023/06/02 04:06:11;;;;;;;9.43;4.55;;;;;;;;;;4989887;28;20038;-70
2023/06/02 04:08:37;;;;;;;15.40;5.55;;;;;;;;;;4986885;28;20438;-71
2023/06/02 04:11:03;;;;;;;16.02;4.85;;;;;;;;;;4983557;28;20030;-70
2023/06/02 04:13:30;;;;;;;15.27;5.65;;;;;;;;;;4990107;28;20511;-70
2023/06/02 04:15:58;;;;;;;15.73;5.18;;;;;;;;;;4990086;28;20392;-70
2023/06/02 04:18:26;;;;;;;13.88;5.53;;;;;;;;;;4993192;28;20061;-70
2023/06/02 04:20:56;;;;;;;13.98;5.15;;;;;;;;;;4993543;28;20032;-70
2023/06/02 04:23:21;;;;;;;10.43;4.63;;;;;;;;;;4988860;28;20106;-70
2023/06/02 04:25:47;;;;;;;9.68;4.75;;;;;;;;;;4993742;28;20507;-71
2023/06/02 04:28:13;;;;;;;9.35;5.30;;;;;;;;;;4992310;28;20482;-70
2023/06/02 04:30:39;;;;;;;8.80;5.20;;;;;;;;;;4991330;28;20038;-70
2023/06/02 04:33:06;;;;;;;13.00;5.60;;;;;;;;;;4987981;28;20049;-71
2023/06/02 04:35:33;;;;;;;8.98;4.45;;;;;;;;;;4992107;28;20053;-69
2023/06/02 04:37:59;;;;;;;7.25;4.90;;;;;;;;;;4973105;28;20046;-70
2023/06/02 04:40:25;;;;;;;15.57;5.15;;;;;;;;;;4990575;28;20030;-70
2023/06/02 04:42:52;;;;;;;10.00;5.65;;;;;;;;;;4991131;28;20488;-71
2023/06/02 04:45:20;;;;;;;13.00;5.57;;;;;;;;;;4989773;28;20029;-69
2023/06/02 04:47:48;;;;;;;10.55;5.00;;;;;;;;;;4992046;28;20038;-70
2023/06/02 04:50:14;;;;;;;18.80;5.22;;;;;;;;;;4990315;28;20559;-71
2023/06/02 04:52:42;;;;;;;7.38;4.80;;;;;;;;;;4990403;28;20092;-71
2023/06/02 04:55:10;;;;;;;9.00;4.40;;;;;;;;;;4990185;28;20022;-70
2023/06/02 04:57:37;;;;;;;8.52;4.63;;;;;;;;;;4991427;28;20120;-70
2023/06/02 05:00:05;;;;;;;11.10;4.82;;;;;;;;;;4991327;28;20093;-70
2023/06/02 05:02:32;;;;;;;7.15;4.47;;;;;;;;;;4989217;28;20026;-71
2023/06/02 05:04:58;;;;;;;9.55;4.82;;;;;;;;;;4990573;28;20038;-72
2023/06/02 05:07:24;;;;;;;9.55;5.20;;;;;;;;;;4991358;28;20046;-71
2023/06/02 05:09:52;;;;;;;7.65;4.60;;;;;;;;;;4990636;28;20386;-70
2023/06/02 05:12:18;;;;;;;14.48;5.10;;;;;;;;;;4990478;28;20026;-72
2023/06/02 05:14:44;;;;;;;10.55;5.53;;;;;;;;;;4990670;28;20027;-72
2023/06/02 05:17:12;;;;;;;13.35;5.88;;;;;;;;;;4992862;28;20030;-71
2023/06/02 05:19:41;;;;;;;11.75;5.60;;;;;;;;;;4977860;28;20030;-72
2023/06/02 05:22:07;;;;;;;10.77;5.10;;;;;;;;;;4993737;28;20061;-73
2023/06/02 05:24:33;;;;;;;17.38;5.75;;;;;;;;;;4992216;28;20034;-71
2023/06/02 05:26:59;;;;;;;13.40;5.93;;;;;;;;;;4991916;28;20049;-71
2023/06/02 05:29:25;;;;;;;10.23;5.25;;;;;;;;;;4995829;28;20556;-72
2023/06/02 05:31:52;;;;;;;9.52;5.22;;;;;;;;;;4975057;28;20302;-72
2023/06/02 05:34:17;;;;;;;9.18;6.05;;;;;;;;;;4993295;28;20342;-72
2023/06/02 05:36:45;;;;;;;9.60;5.75;;;;;;;;;;4972725;28;20129;-71
2023/06/02 05:39:12;;;;;;;15.55;6.47;;;;;;;;;;4991516;28;20041;-71
2023/06/02 05:41:38;;;;;;;13.30;5.63;;;;;;;;;;4991991;28;20410;-72
2023/06/02 05:44:04;;;;;;;11.13;5.72;;;;;;;;;;4992636;28;20025;-72
2023/06/02 05:46:30;;;;;;;14.75;5.95;;;;;;;;;;5011730;28;20404;-72
2023/06/02 05:48:56;;;;;;;11.82;6.13;;;;;;;;;;5012316;28;20113;-71
2023/06/02 05:51:23;;;;;;;12.25;6.82;;;;;;;;;;5001769;28;20044;-73
2023/06/02 05:53:50;;;;;;;16.65;6.70;;;;;;;;;;5005708;28;20026;-71
2023/06/02 05:56:17;;;;;;;10.88;6.20;;;;;;;;;;5005821;28;20553;-71
2023/06/02 05:58:43;;;;;;;12.77;6.93;;;;;;;;;;5004513;28;20468;-71
2023/06/02 06:01:09;;;;;;;10.45;6.80;;;;;;;;;;4991354;28;20045;-71
2023/06/02 06:03:36;;;;;;;13.07;6.78;;;;;;;;;;4991710;28;20026;-71
2023/06/02 06:06:04;;;;;;;12.18;6.65;;;;;;;;;;4986902;28;20038;-72
2023/06/02 06:08:30;;;;;;;10.95;6.18;;;;;;;;;;4978428;28;20092;-72
2023/06/02 06:10:57;;;;;;;10.38;6.50;;;;;;;;;;4989915;28;20479;-71
2023/06/02 06:13:23;;;;;;;20.88;7.63;;;;;;;;;;4989297;28;20037;-71
2023/06/02 06:15:49;;;;;;;17.40;7.15;;;;;;;;;;4987768;28;20472;-70
2023/06/02 06:18:15;;;;;;;14.90;6.50;;;;;;;;;;4987262;28;20029;-72
2023/06/02 06:20:43;;;;;;;15.02;6.72;;;;;;;;;;4988061;28;20492;-72
2023/06/02 06:23:10;;;;;;;11.02;6.00;;;;;;;;;;4990618;28;20377;-71
2023/06/02 06:25:38;;;;;;;11.60;5.38;;;;;;;;;;4990080;28;20045;-71
2023/06/02 06:28:04;;;;;;;9.65;6.15;;;;;;;;;;4989292;28;20027;-72
2023/06/02 06:30:30;;;;;;;12.90;6.10;;;;;;;;;;4989229;28;20069;-72
2023/06/02 06:33:02;;;;;;;10.77;6.53;;;;;;;;;;4974673;28;20040;-72
2023/06/02 06:35:29;;;;;;;17.42;7.38;;;;;;;;;;4990973;28;20114;-71
2023/06/02 06:37:56;;;;;;;10.98;6.68;;;;;;;;;;4991371;28;20118;-72
2023/06/02 06:40:23;;;;;;;11.00;5.97;;;;;;;;;;4990101;28;20038;-73
2023/06/02 06:42:49;;;;;;;16.50;6.20;;;;;;;;;;4990537;28;20057;-72
2023/06/02 06:45:38;;;;;;;9.23;5.15;;;;;;;;;;4990298;28;20042;-74
2023/06/02 06:48:08;;;;;;;8.35;4.90;;;;;;;;;;4990158;28;20488;-73
2023/06/02 06:50:37;;;;;;;7.65;4.93;;;;;;;;;;4990013;28;20113;-73
2023/06/02 06:53:05;;;;;;;6.35;4.60;;;;;;;;;;4984252;28;20038;-73
2023/06/02 06:55:31;;;;;;;6.45;4.25;;;;;;;;;;4991880;28;20134;-73
2023/06/02 06:57:57;;;;;;;8.27;4.35;;;;;;;;;;4991314;28;20062;-73
2023/06/02 07:00:23;;;;;;;6.47;4.00;;;;;;;;;;4991869;28;20069;-74
2023/06/02 07:02:51;;;;;;;7.32;4.07;;;;;;;;;;4991706;28;20081;-71
2023/06/02 07:05:18;;;;;;;5.65;3.47;;;;;;;;;;4991882;28;20058;-74
2023/06/02 07:07:45;;;;;;;8.63;4.03;;;;;;;;;;4990918;28;20091;-73
2023/06/02 07:10:14;;;;;;;11.02;4.10;;;;;;;;;;4990489;28;20038;-72
2023/06/02 07:12:42;;;;;;;6.75;4.00;;;;;;;;;;4970806;28;20033;-73
2023/06/02 07:15:10;;;;;;;5.57;3.65;;;;;;;;;;4986996;28;20022;-72
2023/06/02 07:17:36;;;;;;;6.88;3.70;;;;;;;;;;4980395;28;20018;-74
2023/06/02 07:20:03;;;;;;;6.68;3.80;;;;;;;;;;5010950;28;20030;-73
2023/06/02 07:22:28;;;;;;;5.13;3.38;;;;;;;;;;5011097;28;20037;-72
2023/06/02 07:24:54;;;;;;;6.72;3.63;;;;;;;;;;5009617;28;20042;-71
2023/06/02 07:27:20;;;;;;;6.63;3.83;;;;;;;;;;5010864;28;20053;-73
2023/06/02 07:29:46;;;;;;;6.40;3.88;;;;;;;;;;5010433;28;20080;-73
2023/06/02 07:32:12;;;;;;;9.95;3.78;;;;;;;;;;5011325;28;20364;-72
2023/06/02 07:34:39;;;;;;;5.30;3.53;;;;;;;;;;4991625;28;20408;-71
2023/06/02 07:37:05;;;;;;;7.78;4.00;;;;;;;;;;4991279;28;20026;-72
2023/06/02 07:39:31;;;;;;;7.53;3.60;;;;;;;;;;4990086;28;20050;-73
2023/06/02 07:41:56;;;;;;;5.55;3.97;;;;;;;;;;4991864;28;20083;-73
2023/06/02 07:44:22;;;;;;;11.32;4.10;;;;;;;;;;4991528;28;20106;-72
2023/06/02 07:46:48;;;;;;;8.70;3.97;;;;;;;;;;4991689;28;20041;-71
2023/06/02 07:49:13;;;;;;;11.68;3.50;;;;;;;;;;4990391;28;20030;-71
2023/06/02 07:51:40;;;;;;;6.35;3.75;;;;;;;;;;4992876;28;20030;-72
2023/06/02 07:54:07;;;;;;;6.78;3.83;;;;;;;;;;4995486;28;20182;-71
2023/06/02 07:56:32;;;;;;;9.68;4.00;;;;;;;;;;4995273;28;20549;-71
2023/06/02 07:58:59;;;;;;;5.13;3.47;;;;;;;;;;4994238;28;20034;-73
2023/06/02 08:01:25;;;;;;;6.03;3.42;;;;;;;;;;4994173;28;20034;-75
2023/06/02 08:03:52;;;;;;;7.53;3.42;;;;;;;;;;4977022;28;20115;-77
2023/06/02 08:06:19;;;;;;;8.18;3.35;;;;;;;;;;4991259;28;20037;-72
2023/06/02 08:08:45;;;;;;;6.13;3.30;;;;;;;;;;4992247;28;20030;-72
2023/06/02 08:11:12;;;;;;;4.85;3.25;;;;;;;;;;4992562;28;20476;-72
2023/06/02 08:13:39;;;;;;;8.60;3.10;;;;;;;;;;4990294;28;20037;-72
2023/06/02 08:16:05;;;;;;;8.70;3.33;;;;;;;;;;4994512;28;20137;-71
2023/06/02 08:18:33;;;;;;;4.72;2.97;;;;;;;;;;4995022;28;20034;-72
2023/06/02 08:20:59;;;;;;;7.20;4.03;;;;;;;;;;4993801;28;20034;-72
2023/06/02 08:23:25;;;;;;;6.25;3.50;;;;;;;;;;4992931;28;20484;-72
2023/06/02 08:25:53;;;;;;;5.95;3.60;;;;;;;;;;4994458;28;20380;-71
2023/06/02 08:28:24;;;;;;;8.05;3.53;;;;;;;;;;4991646;28;20133;-73
2023/06/02 08:30:52;;;;;;;6.53;3.35;;;;;;;;;;4993120;28;20038;-74
2023/06/02 08:33:19;;;;;;;6.97;3.45;;;;;;;;;;4991333;28;20058;-73
2023/06/02 08:35:46;;;;;;;6.68;3.72;;;;;;;;;;4991412;28;20367;-73
2023/06/02 08:38:16;;;;;;;5.78;3.65;;;;;;;;;;4993302;28;20085;-72
2023/06/02 08:40:45;;;;;;;7.35;3.70;;;;;;;;;;4992829;28;20096;-74
2023/06/02 08:43:13;;;;;;;8.40;3.50;;;;;;;;;;4991175;28;20038;-73
2023/06/02 08:45:41;;;;;;;5.57;3.00;;;;;;;;;;4990450;28;20076;-75
2023/06/02 08:48:07;;;;;;;6.53;3.15;;;;;;;;;;4992473;28;20026;-72
2023/06/02 08:50:35;;;;;;;6.32;3.15;;;;;;;;;;4989755;28;20038;-74
2023/06/02 08:53:03;;;;;;;6.53;3.60;;;;;;;;;;4991264;28;20053;-72
2023/06/02 08:55:30;;;;;;;6.03;3.50;;;;;;;;;;4975494;28;20261;-73
2023/06/02 08:57:56;;;;;;;4.80;3.20;;;;;;;;;;4985844;28;20030;-73
2023/06/02 09:00:21;;;;;;;4.75;3.05;;;;;;;;;;4980836;28;20070;-73
2023/06/02 09:02:48;;;;;;;6.35;3.22;;;;;;;;;;4975169;28;20069;-74
2023/06/02 09:05:17;;;;;;;4.68;3.60;;;;;;;;;;4986365;28;20112;-72
2023/06/02 09:07:45;;;;;;;6.80;3.53;;;;;;;;;;4990604;28;20034;-72
2023/06/02 09:10:31;;;;;;;8.73;3.58;;;;;;;;;;4991975;28;20037;-72
2023/06/02 09:12:58;;;;;;;7.55;3.40;;;;;;;;;;4989056;28;20067;-76
2023/06/02 09:15:24;;;;;;;4.88;3.17;;;;;;;;;;4989454;28;20022;-75
2023/06/02 09:17:51;;;;;;;6.80;3.20;;;;;;;;;;4987026;28;20030;-73
2023/06/02 09:20:29;;;;;;;5.85;3.67;;;;;;;;;;4985203;28;20097;-75
2023/06/02 09:22:59;;;;;;;6.35;3.55;;;;;;;;;;4966952;28;20053;-72
2023/06/02 09:25:27;;;;;;;8.57;3.45;;;;;;;;;;4987678;28;20546;-75
2023/06/02 09:27:56;;;;;;;5.88;3.38;;;;;;;;;;4973598;28;20658;-74
2023/06/02 09:30:23;;;;;;;8.55;3.60;;;;;;;;;;4991842;28;20038;-73
2023/06/02 09:32:59;;;;;;;5.43;3.08;;;;;;;;;;4991212;28;20022;-75
2023/06/02 09:35:35;;;;;;;7.55;3.47;;;;;;;;;;4993114;28;20046;-74
2023/06/02 09:38:07;;;;;;;5.13;3.28;;;;;;;;;;4993154;28;20117;-74
2023/06/02 09:40:36;;;;;;;5.10;3.40;;;;;;;;;;4995077;28;20034;-73
2023/06/02 09:43:03;;;;;;;7.40;3.67;;;;;;;;;;5010742;28;20549;-76
2023/06/02 09:45:30;;;;;;;6.80;3.30;;;;;;;;;;4987945;28;20046;-71
2023/06/02 09:47:56;;;;;;;5.80;3.47;;;;;;;;;;4973221;28;20385;-73
2023/06/02 09:50:36;;;;;;;4.90;3.10;;;;;;;;;;4984815;28;20502;-75
2023/06/02 09:53:06;;;;;;;5.65;3.20;;;;;;;;;;4981117;28;20140;-74
2023/06/02 09:55:35;;;;;;;5.93;3.33;;;;;;;;;;4991096;28;20125;-76
2023/06/02 09:58:02;;;;;;;7.32;3.67;;;;;;;;;;4988127;28;20162;-72
2023/06/02 10:00:28;;;;;;;5.88;3.45;;;;;;;;;;4993529;28;20029;-73
2023/06/02 10:02:56;;;;;;;6.13;2.95;;;;;;;;;;4989686;28;20496;-76
2023/06/02 10:05:23;;;;;;;5.07;3.10;;;;;;;;;;4991603;28;20034;-73
2023/06/02 10:08:21;;;;;;;5.43;3.30;;;;;;;;;;4990628;28;20029;-73
2023/06/02 10:11:21;;;;;;;8.73;3.83;;;;;;;;;;4993767;28;20038;-73
2023/06/02 10:14:05;;;;;;;7.22;3.40;;;;;;;;;;4989838;28;20050;-73
2023/06/02 10:17:06;;;;;;;6.43;3.22;;;;;;;;;;4991314;28;20488;-72
2023/06/02 10:19:47;;;;;;;6.80;3.72;;;;;;;;;;4978563;28;20042;-74
2023/06/02 10:22:16;;;;;;;8.65;4.72;;;;;;;;;;4986450;28;20038;-73
2023/06/02 10:25:11;;;;;;;5.57;3.42;;;;;;;;;;4990484;28;20026;-71
2023/06/02 10:27:40;;;;;;;8.68;3.28;;;;;;;;;;4939164;28;20067;-74
2023/06/02 10:30:07;;;;;;;7.32;3.58;;;;;;;;;;4990568;28;20054;-72
2023/06/02 10:32:50;;;;;;;4.28;3.45;;;;;;;;;;4992128;28;20045;-74
2023/06/02 10:35:17;;;;;;;6.90;3.92;;;;;;;;;;4981456;28;20038;-75
2023/06/02 10:37:44;;;;;;;5.80;3.75;;;;;;;;;;4989036;28;20029;-74
2023/06/02 10:40:10;;;;;;;6.28;3.42;;;;;;;;;;4991858;28;20046;-75
2023/06/02 10:43:02;;;;;;;4.53;3.00;;;;;;;;;;4993080;28;20049;-75
2023/06/02 10:45:37;;;;;;;6.35;3.40;;;;;;;;;;4979509;28;20074;-74
2023/06/02 10:48:42;;;;;;;5.15;3.05;;;;;;;;;;4990358;28;20062;-74
2023/06/02 10:51:09;;;;;;;6.45;3.45;;;;;;;;;;4990612;28;20026;-76
2023/06/02 10:54:07;;;;;;;9.00;5.10;;;;;;;;;;4989174;28;20036;-76
2023/06/02 10:56:35;;;;;;;6.32;4.18;;;;;;;;;;4986419;28;20549;-74
2023/06/02 10:59:07;;;;;;;5.03;3.00;;;;;;;;;;4989962;28;20018;-74
2023/06/02 11:01:46;;;;;;;8.30;3.83;;;;;;;;;;4991980;28;20034;-73
2023/06/02 11:04:28;;;;;;;7.10;3.30;;;;;;;;;;4993354;28;20578;-75
2023/06/02 11:07:21;;;;;;;6.45;3.95;;;;;;;;;;4993259;28;20079;-75
2023/06/02 11:09:51;;;;;;;5.53;2.88;;;;;;;;;;4991286;28;20484;-74
2023/06/02 11:12:20;;;;;;;8.80;3.90;;;;;;;;;;4991662;28;20018;-76
2023/06/02 11:15:02;;;;;;;5.30;3.33;;;;;;;;;;4973134;28;20030;-75
2023/06/02 11:17:30;;;;;;;5.53;3.50;;;;;;;;;;4990911;28;20041;-74
2023/06/02 11:19:57;;;;;;;9.15;3.50;;;;;;;;;;4991467;28;20483;-73
2023/06/02 11:22:26;;;;;;;4.78;3.10;;;;;;;;;;4988951;28;20380;-74
2023/06/02 11:24:51;;;;;;;4.32;3.08;;;;;;;;;;4989280;28;20030;-74
2023/06/02 11:27:18;;;;;;;4.50;2.90;;;;;;;;;;4991641;28;20031;-75
2023/06/02 11:29:44;;;;;;;6.70;3.28;;;;;;;;;;4992193;28;20022;-74
2023/06/02 11:32:14;;;;;;;6.32;2.95;;;;;;;;;;4990494;28;20042;-74
2023/06/02 11:34:42;;;;;;;5.60;2.95;;;;;;;;;;4991041;28;20480;-75
2023/06/02 11:37:14;;;;;;;5.25;3.20;;;;;;;;;;4990996;28;20031;-73
2023/06/02 11:39:50;;;;;;;;;;;;;;;;;;4992022;28;20041;-73
2023/06/02 11:42:15;;;;;;;6.75;3.67;;;;;;;;;;4991981;28;19914;-74
2023/06/02 11:44:50;;;;;;;8.20;3.30;;;;;;;;;;4991950;28;20018;-73
2023/06/02 11:47:20;;;;;;;6.95;3.10;;;;;;;;;;4990883;28;20480;-73
2023/06/02 11:49:47;;;;;;;11.82;3.72;;;;;;;;;;4990774;28;20042;-72
2023/06/02 11:52:13;;;;;;;7.63;4.25;;;;;;;;;;4999514;28;20122;-73
2023/06/02 11:54:53;;;;;;;7.65;3.70;;;;;;;;;;4992810;28;20481;-76
2023/06/02 11:57:45;;;;;;;4.85;2.90;;;;;;;;;;4986416;28;20022;-75
2023/06/02 12:00:15;;;;;;;4.68;3.13;;;;;;;;;;4991165;28;20135;-77
2023/06/02 12:02:51;;;;;;;4.90;3.30;;;;;;;;;;4992255;28;20348;-73
2023/06/02 12:05:37;;;;;;;5.38;3.08;;;;;;;;;;4991705;28;20031;-74
2023/06/02 12:08:12;;;;;;;4.57;3.13;;;;;;;;;;4995441;28;20515;-76
2023/06/02 12:10:39;;;;;;;7.03;4.82;;;;;;;;;;4990699;28;20084;-75
2023/06/02 12:13:05;;;;;;;4.80;3.40;;;;;;;;;;4990695;28;20044;-76
2023/06/02 12:15:35;;;;;;;6.20;3.25;;;;;;;;;;4992165;28;20105;-76
2023/06/02 12:18:06;;;;;;;5.05;3.45;;;;;;;;;;4990573;28;20044;-75
2023/06/02 12:20:39;;;;;;;5.75;3.60;;;;;;;;;;4989857;28;20065;-76
2023/06/02 12:23:09;;;;;;;5.55;3.30;;;;;;;;;;4991215;28;20408;-75
2023/06/02 12:25:37;;;;;;;6.93;3.25;;;;;;;;;;4990158;28;20018;-77
2023/06/02 12:28:09;;;;;;;4.30;3.08;;;;;;;;;;4991013;28;20504;-75
2023/06/02 12:30:34;;;;;;;6.85;3.30;;;;;;;;;;4991124;28;20035;-74
2023/06/02 12:33:11;;;;;;;4.20;3.00;;;;;;;;;;4990088;28;20034;-76
2023/06/02 12:35:38;;;;;;;8.38;4.10;;;;;;;;;;4991354;28;20519;-73
2023/06/02 12:38:05;;;;;;;6.13;3.40;;;;;;;;;;4992319;28;20098;-75
2023/06/02 12:40:32;;;;;;;5.55;3.60;;;;;;;;;;4994920;28;20022;-74
2023/06/02 12:42:59;;;;;;;5.40;3.38;;;;;;;;;;4994892;28;20153;-76
2023/06/02 12:45:25;;;;;;;4.13;2.75;;;;;;;;;;4994646;28;20034;-74
2023/06/02 12:47:54;;;;;;;7.57;3.35;;;;;;;;;;4994811;28;20018;-76
2023/06/02 12:50:24;;;;;;;6.00;2.72;;;;;;;;;;4994959;28;20042;-76
2023/06/02 12:52:51;;;;;;;5.57;3.17;;;;;;;;;;4993667;28;20046;-77
2023/06/02 12:55:18;;;;;;;5.53;3.38;;;;;;;;;;4977416;28;20026;-77
2023/06/02 12:57:48;;;;;;;5.13;3.05;;;;;;;;;;4993158;28;20038;-75
2023/06/02 13:00:15;;;;;;;7.47;3.45;;;;;;;;;;4994797;28;20509;-74
2023/06/02 13:02:44;;;;;;;5.20;3.05;;;;;;;;;;4994882;28;20391;-72
2023/06/02 13:05:11;;;;;;;5.43;2.95;;;;;;;;;;4994231;28;20033;-74
2023/06/02 13:07:38;;;;;;;5.05;3.38;;;;;;;;;;4994659;28;20038;-74
2023/06/02 13:10:06;;;;;;;5.97;3.72;;;;;;;;;;4994205;28;20098;-75
2023/06/02 13:12:32;;;;;;;5.93;3.15;;;;;;;;;;4993529;28;20384;-76
2023/06/02 13:14:59;;;;;;;4.47;3.05;;;;;;;;;;4993763;28;20023;-74
2023/06/02 13:17:27;;;;;;;5.22;3.17;;;;;;;;;;4993850;28;20030;-75
2023/06/02 13:19:53;;;;;;;5.30;3.42;;;;;;;;;;4994152;28;20046;-75
2023/06/02 13:22:20;;;;;;;8.25;4.20;;;;;;;;;;4993582;28;20040;-77
2023/06/02 13:24:47;;;;;;;4.85;3.15;;;;;;;;;;4994846;28;20027;-77
2023/06/02 13:27:14;;;;;;;5.80;3.45;;;;;;;;;;4977763;28;20065;-74
2023/06/02 13:29:40;;;;;;;5.45;3.22;;;;;;;;;;4994568;28;20073;-75
2023/06/02 13:32:06;;;;;;;5.55;3.08;;;;;;;;;;4994938;28;20053;-75
2023/06/02 13:34:33;;;;;;;6.57;3.00;;;;;;;;;;4995024;28;20038;-77
2023/06/02 13:36:59;;;;;;;5.25;3.10;;;;;;;;;;4994868;28;20050;-77
2023/06/02 13:39:25;;;;;;;5.88;3.05;;;;;;;;;;4994451;28;20506;-74
2023/06/02 13:41:51;;;;;;;7.15;3.25;;;;;;;;;;4993012;28;20408;-76
2023/06/02 13:44:20;;;;;;;6.32;3.60;;;;;;;;;;4994312;28;20472;-75
2023/06/02 13:46:47;;;;;;;6.90;2.85;;;;;;;;;;4976913;28;20145;-77
2023/06/02 13:49:19;;;;;;;7.60;3.20;;;;;;;;;;4992754;28;20249;-75
2023/06/02 13:51:48;;;;;;;7.03;3.28;;;;;;;;;;4977919;28;20193;-74
2023/06/02 13:54:16;;;;;;;7.25;3.20;;;;;;;;;;4994145;28;20066;-75
2023/06/02 13:56:43;;;;;;;6.80;3.10;;;;;;;;;;4994289;28;20049;-74
2023/06/02 13:59:09;;;;;;;6.25;3.58;;;;;;;;;;4994036;28;20022;-74
2023/06/02 14:01:36;;;;;;;8.60;3.05;;;;;;;;;;4994162;28;20042;-74
2023/06/02 14:04:04;;;;;;;4.55;2.75;;;;;;;;;;4994123;28;20026;-75
2023/06/02 14:06:30;;;;;;;5.47;3.13;;;;;;;;;;4993888;28;20038;-75
2023/06/02 14:08:56;;;;;;;7.88;3.30;;;;;;;;;;4992724;28;20477;-74
2023/06/02 14:11:22;;;;;;;5.15;3.35;;;;;;;;;;4994059;28;20034;-74
2023/06/02 14:13:48;;;;;;;5.32;3.03;;;;;;;;;;4994105;28;20025;-74
2023/06/02 14:16:16;;;;;;;4.47;3.08;;;;;;;;;;4995454;28;20038;-74
2023/06/02 14:18:42;;;;;;;4.75;3.25;;;;;;;;;;4993691;28;20539;-74
2023/06/02 14:21:08;;;;;;;7.32;3.45;;;;;;;;;;4992278;28;20035;-74
2023/06/02 14:23:34;;;;;;;7.90;3.17;;;;;;;;;;4993840;28;20129;-75
2023/06/02 14:26:00;;;;;;;5.05;3.40;;;;;;;;;;4993588;28;20046;-74
2023/06/02 14:28:25;;;;;;;10.90;3.75;;;;;;;;;;4993347;28;20029;-75
2023/06/02 14:30:51;;;;;;;5.95;3.30;;;;;;;;;;4993743;28;20049;-74
2023/06/02 14:33:18;;;;;;;4.70;2.88;;;;;;;;;;4992205;28;20408;-75
2023/06/02 14:35:44;;;;;;;9.07;3.83;;;;;;;;;;4992918;28;20030;-74
2023/06/02 14:38:10;;;;;;;5.65;3.30;;;;;;;;;;4993168;28;20043;-74
2023/06/02 14:40:38;;;;;;;4.85;3.22;;;;;;;;;;4992964;28;20038;-73
2023/06/02 14:43:06;;;;;;;5.68;3.42;;;;;;;;;;4990666;28;20166;-75
2023/06/02 14:45:33;;;;;;;7.22;3.33;;;;;;;;;;4992849;28;20042;-73
2023/06/02 14:48:00;;;;;;;5.55;2.88;;;;;;;;;;4999337;28;20081;-72